createdAt,value
2023-05-20T00:01:52.320Z,4.60
2023-05-20T00:03:55.344Z,8.73
2023-05-20T00:05:58.360Z,7.57
2023-05-20T00:08:04.647Z,4.23
2023-05-20T00:10:08.328Z,6.13
2023-05-20T00:12:11.109Z,5.23
2023-05-20T00:14:14.328Z,5.40
2023-05-20T00:16:17.143Z,4.53
2023-05-20T00:18:21.319Z,11.13
2023-05-20T00:20:24.534Z,10.30
2023-05-20T00:22:27.308Z,5.20
2023-05-20T00:24:30.051Z,6.13
2023-05-20T00:26:32.777Z,10.00
2023-05-20T00:28:35.708Z,4.93
2023-05-20T00:30:41.026Z,6.60
2023-05-20T00:32:43.808Z,5.53
2023-05-20T00:34:56.928Z,5.17
2023-05-20T00:36:59.917Z,3.50
2023-05-20T00:39:02.735Z,5.93
2023-05-20T00:41:05.599Z,4.88
2023-05-20T00:43:08.344Z,5.05
2023-05-20T00:45:12.045Z,5.47
2023-05-20T00:47:16.313Z,5.28
2023-05-20T00:49:19.205Z,5.07
2023-05-20T00:51:23.411Z,4.70
2023-05-20T00:53:26.982Z,5.82
2023-05-20T00:55:29.958Z,8.00
2023-05-20T00:57:33.152Z,9.40
2023-05-20T00:59:38.339Z,4.57
2023-05-20T01:01:41.705Z,6.75
2023-05-20T01:03:44.556Z,4.60
2023-05-20T01:05:47.393Z,5.30
2023-05-20T01:07:51.644Z,5.10
2023-05-20T01:09:56.155Z,5.15
2023-05-20T01:12:05.022Z,7.38
2023-05-20T01:14:09.889Z,7.38
2023-05-20T01:16:12.900Z,7.32
2023-05-20T01:18:18.438Z,4.95
2023-05-20T01:20:22.613Z,6.10
2023-05-20T01:22:27.822Z,6.45
2023-05-20T01:24:30.814Z,5.82
2023-05-20T01:26:38.474Z,5.28
2023-05-20T01:28:43.616Z,5.40
2023-05-20T01:30:59.117Z,7.88
2023-05-20T01:33:06.964Z,6.70
2023-05-20T01:35:10.945Z,6.88
2023-05-20T01:37:14.852Z,5.70
2023-05-20T01:39:19.600Z,4.90
2023-05-20T01:41:24.920Z,4.38
2023-05-20T01:43:30.185Z,7.93
2023-05-20T01:45:33.154Z,4.68
2023-05-20T01:47:36.129Z,4.85
2023-05-20T01:49:38.956Z,5.68
2023-05-20T01:51:41.753Z,4.75
2023-05-20T01:53:45.632Z,7.40
2023-05-20T01:55:49.698Z,6.25
2023-05-20T01:57:52.479Z,5.45
2023-05-20T01:59:56.350Z,7.72
2023-05-20T02:01:59.222Z,5.45
2023-05-20T02:04:03.169Z,5.10
2023-05-20T02:06:06.430Z,4.78
2023-05-20T02:08:09.367Z,5.40
2023-05-20T02:10:12.601Z,7.38
2023-05-20T02:12:17.399Z,4.60
2023-05-20T02:14:20.443Z,4.43
2023-05-20T02:16:23.487Z,7.55
2023-05-20T02:18:27.513Z,10.85
2023-05-20T02:20:30.303Z,6.40
2023-05-20T02:22:33.113Z,8.80
2023-05-20T02:24:35.854Z,4.43
2023-05-20T02:26:38.608Z,4.57
2023-05-20T02:28:46.586Z,11.75
2023-05-20T02:30:51.113Z,4.75
2023-05-20T02:32:53.907Z,6.50
2023-05-20T02:34:57.011Z,4.90
2023-05-20T02:36:59.827Z,4.72
2023-05-20T02:39:02.719Z,6.85
2023-05-20T02:41:07.413Z,5.80
2023-05-20T02:43:10.170Z,4.70
2023-05-20T02:45:14.291Z,5.57
2023-05-20T02:47:17.033Z,4.40
2023-05-20T02:49:20.008Z,7.05
2023-05-20T02:51:22.777Z,4.40
2023-05-20T02:53:25.953Z,4.85
2023-05-20T02:55:29.312Z,7.10
2023-05-20T02:57:33.981Z,5.93
2023-05-20T02:59:36.894Z,9.25
2023-05-20T03:01:41.469Z,5.97
2023-05-20T03:03:45.313Z,5.30
2023-05-20T03:05:48.149Z,6.63
2023-05-20T03:07:50.924Z,5.82
2023-05-20T03:09:53.768Z,5.35
2023-05-20T03:11:56.562Z,5.07
2023-05-20T03:13:59.996Z,5.13
2023-05-20T03:16:03.064Z,6.00
2023-05-20T03:18:08.509Z,5.00
2023-05-20T03:20:13.270Z,6.95
2023-05-20T03:22:17.087Z,4.95
2023-05-20T03:24:20.434Z,5.18
2023-05-20T03:26:23.291Z,4.75
2023-05-20T03:28:26.856Z,5.47
2023-05-20T03:30:30.284Z,5.72
2023-05-20T03:32:33.839Z,6.55
2023-05-20T03:34:38.223Z,4.60
2023-05-20T03:36:41.529Z,4.85
2023-05-20T03:38:44.296Z,5.28
2023-05-20T03:40:47.120Z,4.97
2023-05-20T03:42:52.124Z,5.80
2023-05-20T03:44:57.114Z,4.90
2023-05-20T03:47:01.350Z,8.48
2023-05-20T03:49:06.199Z,5.03
2023-05-20T03:51:10.393Z,4.60
2023-05-20T03:53:13.269Z,5.32
2023-05-20T03:55:17.535Z,5.55
2023-05-20T03:57:20.796Z,5.13
2023-05-20T03:59:23.757Z,5.53
2023-05-20T04:01:26.670Z,5.72
2023-05-20T04:03:30.085Z,6.90
2023-05-20T04:05:33.266Z,7.65
2023-05-20T04:07:39.683Z,5.93
2023-05-20T04:09:44.057Z,5.22
2023-05-20T04:11:46.924Z,5.47
2023-05-20T04:13:49.726Z,7.45
2023-05-20T04:15:53.073Z,8.13
2023-05-20T04:17:56.038Z,5.45
2023-05-20T04:19:59.930Z,5.38
2023-05-20T04:22:03.066Z,5.65
2023-05-20T04:24:08.422Z,5.15
2023-05-20T04:26:11.490Z,5.95
2023-05-20T04:28:16.422Z,5.10
2023-05-20T04:30:19.864Z,5.18
2023-05-20T04:32:22.752Z,5.95
2023-05-20T04:34:26.671Z,5.07
2023-05-20T04:36:29.521Z,5.10
2023-05-20T04:38:32.884Z,5.93
2023-05-20T04:40:39.086Z,4.25
2023-05-20T04:42:41.866Z,4.45
2023-05-20T04:44:45.991Z,5.05
2023-05-20T04:46:48.760Z,4.97
2023-05-20T04:48:51.550Z,4.80
2023-05-20T04:50:55.118Z,5.57
2023-05-20T04:52:57.843Z,4.53
2023-05-20T04:55:01.848Z,8.67
2023-05-20T04:57:06.440Z,5.40
2023-05-20T04:59:09.651Z,5.57
2023-05-20T05:01:12.655Z,5.03
2023-05-20T05:03:17.821Z,13.02
2023-05-20T05:05:20.653Z,6.60
2023-05-20T05:07:23.444Z,5.55
2023-05-20T05:09:26.339Z,7.07
2023-05-20T05:11:29.377Z,6.45
2023-05-20T05:13:34.890Z,5.18
2023-05-20T05:15:37.689Z,6.72
2023-05-20T05:17:41.928Z,5.90
2023-05-20T05:19:44.962Z,8.27
2023-05-20T05:21:49.171Z,7.03
2023-05-20T05:23:52.034Z,9.43
2023-05-20T05:25:54.804Z,5.93
2023-05-20T05:27:57.574Z,5.40
2023-05-20T05:30:01.844Z,5.72
2023-05-20T05:32:05.430Z,5.83
2023-05-20T05:34:08.178Z,8.23
2023-05-20T05:36:11.069Z,5.73
2023-05-20T05:38:13.824Z,5.23
2023-05-20T05:40:16.793Z,5.20
2023-05-20T05:42:19.676Z,7.17
2023-05-20T05:44:22.656Z,5.27
2023-05-20T05:46:26.772Z,5.10
2023-05-20T05:48:30.148Z,5.50
2023-05-20T05:50:33.415Z,6.13
2023-05-20T05:52:36.240Z,5.23
2023-05-20T05:54:40.309Z,5.80
2023-05-20T05:56:43.148Z,5.17
2023-05-20T05:58:47.849Z,4.97
2023-05-20T06:00:52.885Z,5.43
2023-05-20T06:02:57.365Z,6.77
2023-05-20T06:05:08.620Z,5.20
2023-05-20T06:07:11.503Z,5.63
2023-05-20T06:09:14.310Z,6.80
2023-05-20T06:11:17.769Z,8.23
2023-05-20T06:13:21.528Z,5.33
2023-05-20T06:15:24.457Z,8.00
2023-05-20T06:17:27.264Z,7.33
2023-05-20T06:19:31.804Z,6.80
2023-05-20T06:21:34.584Z,5.77
2023-05-20T06:23:38.048Z,7.63
2023-05-20T06:25:44.351Z,7.87
2023-05-20T06:27:47.293Z,6.50
2023-05-20T06:29:53.457Z,6.03
2023-05-20T06:31:56.333Z,7.10
2023-05-20T06:33:59.802Z,5.43
2023-05-20T06:36:04.107Z,6.30
2023-05-20T06:38:07.128Z,9.63
2023-05-20T06:40:11.265Z,5.17
2023-05-20T06:42:14.161Z,6.10
2023-05-20T06:44:23.439Z,6.17
2023-05-20T06:46:33.723Z,6.43
2023-05-20T06:48:41.055Z,6.57
2023-05-20T06:50:45.656Z,7.63
2023-05-20T06:52:49.819Z,5.73
2023-05-20T06:54:52.773Z,5.87
2023-05-20T06:56:55.998Z,7.70
2023-05-20T06:58:59.463Z,7.63
2023-05-20T07:01:02.925Z,6.40
2023-05-20T07:03:06.657Z,5.83
2023-05-20T07:05:10.495Z,6.93
2023-05-20T07:07:15.459Z,5.97
2023-05-20T07:09:21.057Z,6.70
2023-05-20T07:11:23.974Z,6.03
2023-05-20T07:13:26.985Z,6.47
2023-05-20T07:15:29.883Z,6.17
2023-05-20T07:17:32.770Z,6.83
2023-05-20T07:19:35.720Z,6.20
2023-05-20T07:21:38.528Z,6.53
2023-05-20T07:23:50.191Z,6.17
2023-05-20T07:25:55.412Z,7.47
2023-05-20T07:27:58.226Z,6.53
2023-05-20T07:30:01.225Z,6.30
2023-05-20T07:32:06.433Z,6.40
2023-05-20T07:34:10.560Z,7.33
2023-05-20T07:36:13.386Z,6.27
2023-05-20T07:38:18.057Z,6.07
2023-05-20T07:40:22.912Z,5.97
2023-05-20T07:42:27.103Z,6.00
2023-05-20T07:44:34.585Z,6.00
2023-05-20T07:46:38.187Z,5.97
2023-05-20T07:48:42.063Z,6.63
2023-05-20T07:50:45.868Z,6.60
2023-05-20T07:54:58.663Z,6.57
2023-05-20T07:57:02.140Z,7.87
2023-05-20T07:59:09.245Z,6.10
2023-05-20T08:01:17.860Z,6.53
2023-05-20T08:03:22.300Z,6.20
2023-05-20T08:05:51.338Z,6.73
2023-05-20T08:07:54.101Z,6.90
2023-05-20T08:10:00.998Z,6.37
2023-05-20T08:12:04.621Z,6.50
2023-05-20T08:14:08.826Z,7.53
2023-05-20T08:16:16.857Z,6.77
2023-05-20T08:18:21.549Z,6.07
2023-05-20T08:20:26.410Z,6.57
2023-05-20T08:22:29.282Z,8.60
2023-05-20T08:24:32.351Z,6.10
2023-05-20T08:26:35.143Z,7.07
2023-05-20T08:28:38.230Z,6.93
2023-05-20T08:30:42.531Z,8.07
2023-05-20T08:32:45.578Z,6.43
2023-05-20T08:34:49.191Z,6.60
2023-05-20T08:36:52.032Z,6.53
2023-05-20T08:38:55.798Z,6.20
2023-05-20T08:40:59.334Z,6.27
2023-05-20T08:43:03.030Z,6.63
2023-05-20T08:45:06.526Z,6.27
2023-05-20T08:47:11.847Z,6.10
2023-05-20T08:49:14.673Z,7.53
2023-05-20T08:51:18.899Z,6.33
2023-05-20T08:53:23.455Z,7.80
2023-05-20T08:55:27.938Z,6.77
2023-05-20T08:57:30.779Z,6.63
2023-05-20T08:59:33.792Z,5.93
2023-05-20T09:01:42.926Z,6.13
2023-05-20T09:03:47.487Z,6.13
2023-05-20T09:05:50.506Z,6.20
2023-05-20T09:07:53.241Z,6.53
2023-05-20T09:09:56.045Z,5.83
2023-05-20T09:11:58.840Z,5.43
2023-05-20T09:14:01.537Z,5.67
2023-05-20T09:16:04.361Z,6.43
2023-05-20T09:18:08.907Z,6.20
2023-05-20T09:20:14.141Z,6.93
2023-05-20T09:22:22.682Z,5.97
2023-05-20T09:24:26.765Z,5.73
2023-05-20T09:26:30.581Z,6.23
2023-05-20T09:28:33.806Z,5.30
2023-05-20T09:30:36.686Z,5.90
2023-05-20T09:32:39.548Z,5.83
2023-05-20T09:34:43.116Z,5.80
2023-05-20T09:36:51.339Z,5.93
2023-05-20T09:38:54.503Z,6.10
2023-05-20T09:40:57.418Z,5.40
2023-05-20T09:43:04.060Z,5.93
2023-05-20T09:45:09.843Z,5.53
2023-05-20T09:47:12.939Z,7.87
2023-05-20T09:49:16.426Z,5.17
2023-05-20T09:51:19.627Z,5.60
2023-05-20T09:53:36.974Z,5.43
2023-05-20T09:55:40.129Z,6.33
2023-05-20T09:57:43.252Z,5.40
2023-05-20T09:59:47.996Z,6.23
2023-05-20T10:01:51.058Z,5.50
2023-05-20T10:03:54.368Z,5.47
2023-05-20T10:06:11.069Z,5.17
2023-05-20T10:08:25.950Z,5.23
2023-05-20T10:10:39.235Z,5.47
2023-05-20T10:12:52.341Z,4.90
2023-05-20T10:15:05.400Z,4.83
2023-05-20T10:17:13.910Z,6.13
2023-05-20T10:19:30.309Z,7.17
2023-05-20T10:21:33.969Z,5.10
2023-05-20T10:23:36.759Z,5.30
2023-05-20T10:25:51.872Z,6.77
2023-05-20T10:28:07.849Z,7.80
2023-05-20T10:30:17.374Z,5.57
2023-05-20T10:32:27.849Z,5.93
2023-05-20T10:34:45.377Z,4.77
2023-05-20T10:36:58.594Z,4.93
2023-05-20T10:39:01.646Z,4.90
2023-05-20T10:41:11.345Z,4.70
2023-05-20T10:43:15.425Z,5.77
2023-05-20T10:45:28.442Z,5.47
2023-05-20T10:47:32.142Z,5.83
2023-05-20T10:49:36.385Z,4.93
2023-05-20T10:51:39.824Z,5.03
2023-05-20T10:53:46.958Z,4.70
2023-05-20T10:55:52.462Z,5.53
2023-05-20T10:57:56.826Z,4.80
2023-05-20T11:00:01.124Z,4.50
2023-05-20T11:02:04.497Z,4.83
2023-05-20T11:04:08.530Z,4.93
2023-05-20T11:06:16.195Z,5.17
2023-05-20T11:08:29.156Z,4.73
2023-05-20T11:10:32.873Z,6.43
2023-05-20T11:12:36.094Z,4.60
2023-05-20T11:14:40.291Z,4.60
2023-05-20T11:16:43.574Z,4.23
2023-05-20T11:18:49.164Z,4.97
2023-05-20T11:20:53.633Z,5.40
2023-05-20T11:22:57.273Z,4.80
2023-05-20T11:25:00.156Z,5.00
2023-05-20T11:27:03.619Z,4.97
2023-05-20T11:29:06.465Z,5.37
2023-05-20T11:31:11.128Z,4.40
2023-05-20T11:33:15.833Z,4.77
2023-05-20T11:35:24.074Z,4.90
2023-05-20T11:37:27.181Z,5.30
2023-05-20T11:39:31.484Z,7.13
2023-05-20T11:41:34.593Z,5.63
2023-05-20T11:43:37.371Z,11.13
2023-05-20T11:45:41.814Z,5.50
2023-05-20T11:47:46.200Z,4.27
2023-05-20T11:49:49.933Z,4.50
2023-05-20T11:51:52.816Z,5.80
2023-05-20T11:54:00.664Z,4.63
2023-05-20T11:56:03.590Z,4.90
2023-05-20T11:58:06.384Z,5.33
2023-05-20T12:00:10.853Z,4.67
2023-05-20T12:02:15.875Z,5.30
2023-05-20T12:04:20.346Z,5.20
2023-05-20T12:06:23.265Z,5.00
2023-05-20T12:08:26.063Z,5.20
2023-05-20T12:10:28.833Z,5.23
2023-05-20T12:12:32.582Z,4.40
2023-05-20T12:14:35.719Z,8.10
2023-05-20T12:16:39.196Z,4.40
2023-05-20T12:18:42.245Z,4.50
2023-05-20T12:20:46.431Z,5.00
2023-05-20T12:22:49.637Z,4.63
2023-05-20T12:24:53.635Z,4.57
2023-05-20T12:26:58.139Z,5.63
2023-05-20T12:29:01.225Z,4.67
2023-05-20T12:31:04.098Z,5.13
2023-05-20T12:33:07.411Z,4.50
2023-05-20T12:35:10.990Z,4.73
2023-05-20T12:37:15.389Z,4.80
2023-05-20T12:39:18.560Z,4.40
2023-05-20T12:41:21.741Z,4.50
2023-05-20T12:43:24.638Z,4.90
2023-05-20T12:45:27.412Z,4.30
2023-05-20T12:47:30.517Z,5.10
2023-05-20T12:49:33.320Z,4.53
2023-05-20T12:51:36.120Z,4.77
2023-05-20T12:53:40.275Z,6.37
2023-05-20T12:55:43.056Z,9.50
2023-05-20T12:57:46.837Z,4.57
2023-05-20T12:59:49.686Z,4.80
2023-05-20T13:01:52.623Z,5.17
2023-05-20T13:03:55.643Z,5.73
2023-05-20T13:05:59.303Z,4.73
2023-05-20T13:08:02.109Z,4.67
2023-05-20T13:10:07.858Z,4.70
2023-05-20T13:12:10.985Z,5.07
2023-05-20T13:14:15.195Z,4.77
2023-05-20T13:16:19.951Z,4.77
2023-05-20T13:18:22.770Z,9.73
2023-05-20T13:20:25.825Z,5.17
2023-05-20T13:22:28.658Z,4.50
2023-05-20T13:24:31.432Z,5.40
2023-05-20T13:26:35.580Z,4.97
2023-05-20T13:28:38.394Z,4.60
2023-05-20T13:30:41.257Z,4.60
2023-05-20T13:32:44.124Z,4.27
2023-05-20T13:34:46.968Z,4.90
2023-05-20T13:36:49.768Z,4.20
2023-05-20T13:38:52.555Z,4.80
2023-05-20T13:40:59.226Z,3.70
2023-05-20T13:43:03.393Z,4.37
2023-05-20T13:45:07.204Z,4.33
2023-05-20T13:47:10.046Z,3.97
2023-05-20T13:49:12.827Z,5.63
2023-05-20T13:51:15.707Z,4.97
2023-05-20T13:53:18.480Z,4.30
2023-05-20T13:55:23.972Z,5.87
2023-05-20T13:57:27.518Z,6.03
2023-05-20T13:59:31.654Z,4.87
2023-05-20T14:01:34.525Z,4.73
2023-05-20T14:03:37.720Z,5.70
2023-05-20T14:05:40.744Z,5.30
2023-05-20T14:07:43.556Z,5.80
2023-05-20T14:09:46.337Z,4.40
2023-05-20T14:11:49.286Z,5.50
2023-05-20T14:13:52.005Z,4.93
2023-05-20T14:15:56.466Z,4.20
2023-05-20T14:17:59.429Z,4.40
2023-05-20T14:20:02.196Z,5.17
2023-05-20T14:22:05.451Z,4.70
2023-05-20T14:24:08.191Z,4.90
2023-05-20T14:26:11.199Z,5.00
2023-05-20T14:28:14.118Z,5.83
2023-05-20T14:30:17.011Z,4.87
2023-05-20T14:32:21.189Z,4.30
2023-05-20T14:34:23.968Z,4.90
2023-05-20T14:36:26.707Z,4.77
2023-05-20T14:38:29.686Z,4.37
2023-05-20T14:40:32.621Z,4.10
2023-05-20T14:42:35.554Z,4.20
2023-05-20T14:44:38.725Z,4.60
2023-05-20T14:46:41.684Z,5.97
2023-05-20T14:48:45.788Z,4.40
2023-05-20T14:50:49.714Z,4.63
2023-05-20T14:52:52.720Z,4.33
2023-05-20T14:54:56.635Z,4.57
2023-05-20T14:56:59.407Z,6.03
2023-05-20T14:59:02.242Z,4.63
2023-05-20T15:01:05.015Z,4.37
2023-05-20T15:03:07.938Z,6.67
2023-05-20T15:05:12.565Z,5.33
2023-05-20T15:07:15.743Z,5.57
2023-05-20T15:09:18.662Z,5.83
2023-05-20T15:11:21.401Z,4.47
2023-05-20T15:13:24.122Z,6.80
2023-05-20T15:15:26.929Z,7.30
2023-05-20T15:17:29.749Z,4.43
2023-05-20T15:19:33.225Z,4.87
2023-05-20T15:21:37.785Z,4.37
2023-05-20T15:23:40.668Z,4.33
2023-05-20T15:25:43.500Z,4.70
2023-05-20T15:27:46.241Z,6.93
2023-05-20T15:29:49.590Z,10.37
2023-05-20T15:31:52.341Z,4.77
2023-05-20T15:33:55.850Z,5.63
2023-05-20T15:35:58.836Z,6.63
2023-05-20T15:38:02.894Z,4.80
2023-05-20T15:40:06.627Z,4.70
2023-05-20T15:42:13.660Z,5.63
2023-05-20T15:44:16.688Z,6.17
2023-05-20T15:46:19.595Z,9.13
2023-05-20T15:48:23.694Z,5.23
2023-05-20T15:50:28.176Z,5.63
2023-05-20T15:52:30.963Z,6.20
2023-05-20T15:54:35.120Z,4.43
2023-05-20T15:56:37.932Z,4.30
2023-05-20T15:58:40.847Z,4.20
2023-05-20T16:00:43.903Z,4.80
2023-05-20T16:02:47.440Z,4.27
2023-05-20T16:04:50.389Z,4.80
2023-05-20T16:06:53.171Z,5.30
2023-05-20T16:08:55.984Z,5.13
2023-05-20T16:11:00.058Z,4.30
2023-05-20T16:13:02.916Z,6.23
2023-05-20T16:15:06.685Z,4.57
2023-05-20T16:17:09.493Z,5.47
2023-05-20T16:19:12.324Z,6.90
2023-05-20T16:21:16.016Z,6.47
2023-05-20T16:23:18.781Z,6.10
2023-05-20T16:25:21.694Z,4.63
2023-05-20T16:27:25.970Z,4.20
2023-05-20T16:29:28.748Z,4.80
2023-05-20T16:31:32.310Z,5.20
2023-05-20T16:33:35.105Z,5.47
2023-05-20T16:35:38.304Z,6.37
2023-05-20T16:37:41.126Z,5.80
2023-05-20T16:39:43.924Z,5.47
2023-05-20T16:41:46.651Z,4.30
2023-05-20T16:43:50.738Z,4.13
2023-05-20T16:45:54.516Z,7.47
2023-05-20T16:47:57.390Z,5.97
2023-05-20T16:50:00.257Z,4.40
2023-05-20T16:52:03.041Z,4.13
2023-05-20T16:54:05.864Z,4.97
2023-05-20T16:56:09.137Z,3.80
2023-05-20T16:58:11.936Z,4.67
2023-05-20T17:00:16.603Z,6.23
2023-05-20T17:02:19.384Z,5.33
2023-05-20T17:04:22.309Z,5.33
2023-05-20T17:06:25.418Z,6.13
2023-05-20T17:08:28.143Z,5.60
2023-05-20T17:10:31.125Z,6.27
2023-05-20T17:12:34.054Z,6.47
2023-05-20T17:14:37.030Z,5.90
2023-05-20T17:16:41.219Z,6.47
2023-05-20T17:18:44.169Z,5.40
2023-05-20T17:20:47.076Z,5.33
2023-05-20T17:22:49.844Z,5.00
2023-05-20T17:24:52.631Z,4.23
2023-05-20T17:26:55.534Z,5.80
2023-05-20T17:28:58.299Z,5.00
2023-05-20T17:31:01.026Z,5.43
2023-05-20T17:33:05.160Z,4.73
2023-05-20T17:35:08.859Z,5.20
2023-05-20T17:37:11.559Z,5.83
2023-05-20T17:39:15.032Z,6.23
2023-05-20T17:41:18.512Z,6.30
2023-05-20T17:43:21.664Z,7.70
2023-05-20T17:45:24.386Z,4.30
2023-05-20T17:47:27.168Z,4.93
2023-05-20T17:49:31.379Z,12.33
2023-05-20T17:51:34.241Z,5.10
2023-05-20T17:53:37.030Z,9.07
2023-05-20T17:55:39.757Z,7.87
2023-05-20T17:57:42.491Z,4.60
2023-05-20T17:59:45.412Z,6.07
2023-05-20T18:01:48.460Z,5.97
2023-05-20T18:03:51.405Z,5.40
2023-05-20T18:05:56.236Z,6.53
2023-05-20T18:07:59.100Z,9.57
2023-05-20T18:10:01.855Z,5.80
2023-05-20T18:12:04.874Z,6.57
2023-05-20T18:14:07.655Z,10.30
2023-05-20T18:16:10.422Z,8.93
2023-05-20T18:18:13.230Z,7.03
2023-05-20T18:20:16.482Z,6.43
2023-05-20T18:22:20.628Z,6.13
2023-05-20T18:24:23.462Z,6.60
2023-05-20T18:26:26.412Z,7.13
2023-05-20T18:28:29.201Z,7.77
2023-05-20T18:30:31.960Z,6.93
2023-05-20T18:32:35.019Z,8.53
2023-05-20T18:34:37.865Z,7.53
2023-05-20T18:36:40.613Z,7.30
2023-05-20T18:38:45.063Z,8.73
2023-05-20T18:40:47.973Z,7.70
2023-05-20T18:42:50.754Z,7.73
2023-05-20T18:44:54.166Z,11.77
2023-05-20T18:46:57.156Z,8.67
2023-05-20T18:48:59.957Z,7.73
2023-05-20T18:51:02.789Z,8.47
2023-05-20T18:53:05.525Z,7.90
2023-05-20T18:55:10.155Z,7.67
2023-05-20T18:57:13.331Z,8.00
2023-05-20T18:59:16.627Z,7.53
2023-05-20T19:01:20.230Z,7.90
2023-05-20T19:03:25.335Z,8.47
2023-05-20T19:05:28.198Z,9.40
2023-05-20T19:07:31.068Z,8.63
2023-05-20T19:09:33.847Z,8.03
2023-05-20T19:11:38.074Z,7.87
2023-05-20T19:13:41.271Z,8.03
2023-05-20T19:15:45.374Z,7.93
2023-05-20T19:17:48.217Z,9.43
2023-05-20T19:19:51.405Z,10.17
2023-05-20T19:21:54.173Z,9.00
2023-05-20T19:23:57.361Z,8.30
2023-05-20T19:26:00.298Z,10.03
2023-05-20T19:28:05.109Z,8.23
2023-05-20T19:30:10.914Z,10.57
2023-05-20T19:32:13.952Z,11.33
2023-05-20T19:34:16.960Z,9.53
2023-05-20T19:36:19.913Z,10.93
2023-05-20T19:38:22.736Z,11.63
2023-05-20T19:40:25.491Z,9.57
2023-05-20T19:42:28.292Z,9.67
2023-05-20T19:44:32.396Z,9.63
2023-05-20T19:46:36.321Z,9.23
2023-05-20T19:48:39.078Z,10.00
2023-05-20T19:50:41.920Z,9.40
2023-05-20T19:52:44.741Z,8.50
2023-05-20T19:54:48.249Z,9.43
2023-05-20T19:56:51.103Z,9.30
2023-05-20T19:58:53.816Z,10.10
2023-05-20T20:00:58.062Z,10.10
2023-05-20T20:03:03.216Z,9.70
2023-05-20T20:05:07.280Z,9.63
2023-05-20T20:07:10.097Z,11.87
2023-05-20T20:09:13.450Z,9.80
2023-05-20T20:11:16.219Z,12.50
2023-05-20T20:13:19.286Z,13.30
2023-05-20T20:15:22.095Z,13.30
2023-05-20T20:17:26.393Z,12.63
2023-05-20T20:19:29.548Z,10.07
2023-05-20T20:21:32.439Z,9.77
2023-05-20T20:23:36.700Z,9.80
2023-05-20T20:25:41.171Z,10.33
2023-05-20T20:27:44.818Z,10.67
2023-05-20T20:29:47.556Z,9.87
2023-05-20T20:31:50.662Z,9.53
2023-05-20T20:33:54.843Z,10.17
2023-05-20T20:35:57.550Z,10.33
2023-05-20T20:38:01.163Z,10.83
2023-05-20T20:40:05.392Z,10.17
2023-05-20T20:42:08.147Z,9.70
2023-05-20T20:44:15.251Z,12.57
2023-05-20T20:46:18.144Z,10.23
2023-05-20T20:48:26.600Z,10.13
2023-05-20T20:50:30.976Z,9.80
2023-05-20T20:52:33.689Z,10.83
2023-05-20T20:54:36.460Z,9.83
2023-05-20T20:56:39.791Z,10.03
2023-05-20T20:58:44.999Z,10.83
2023-05-20T21:00:48.795Z,10.23
2023-05-20T21:02:51.965Z,10.20
2023-05-20T21:04:59.085Z,10.03
2023-05-20T21:07:03.261Z,10.87
2023-05-20T21:09:07.470Z,10.43
2023-05-20T21:11:10.205Z,10.73
2023-05-20T21:13:13.190Z,10.67
2023-05-20T21:15:16.233Z,11.43
2023-05-20T21:17:19.045Z,9.73
2023-05-20T21:19:21.900Z,12.07
2023-05-20T21:21:24.738Z,10.27
2023-05-20T21:23:28.822Z,10.73
2023-05-20T21:25:31.609Z,11.07
2023-05-20T21:27:34.409Z,10.80
2023-05-20T21:29:38.450Z,10.77
2023-05-20T21:31:42.987Z,10.27
2023-05-20T21:33:46.156Z,10.63
2023-05-20T21:35:48.930Z,10.80
2023-05-20T21:37:51.904Z,10.53
2023-05-20T21:39:56.010Z,10.33
2023-05-20T21:41:58.873Z,12.53
2023-05-20T21:44:01.647Z,11.97
2023-05-20T21:46:05.698Z,10.77
2023-05-20T21:48:08.491Z,11.13
2023-05-20T21:50:12.347Z,11.30
2023-05-20T21:52:15.228Z,10.50
2023-05-20T21:54:17.949Z,9.93
2023-05-20T21:56:22.649Z,10.40
2023-05-20T21:58:25.992Z,10.47
2023-05-20T22:00:28.816Z,10.93
2023-05-20T22:02:32.964Z,10.80
2023-05-20T22:04:35.734Z,10.97
2023-05-20T22:06:39.800Z,10.90
2023-05-20T22:08:42.718Z,11.87
2023-05-20T22:10:45.540Z,11.07
2023-05-20T22:12:50.751Z,10.40
2023-05-20T22:14:53.605Z,10.60
2023-05-20T22:16:58.486Z,10.93
2023-05-20T22:19:02.532Z,10.87
2023-05-20T22:21:05.942Z,10.60
2023-05-20T22:23:08.731Z,10.43
2023-05-20T22:25:12.572Z,11.30
2023-05-20T22:27:15.346Z,15.77
2023-05-20T22:29:19.427Z,11.20
2023-05-20T22:31:22.273Z,17.33
2023-05-20T22:33:25.244Z,15.07
2023-05-20T22:35:28.022Z,13.20
2023-05-20T22:37:30.729Z,12.03
2023-05-20T22:39:33.653Z,12.40
2023-05-20T22:41:36.499Z,11.77
2023-05-20T22:43:39.274Z,12.50
2023-05-20T22:45:43.572Z,11.53
2023-05-20T22:47:46.598Z,11.87
2023-05-20T22:49:49.413Z,15.13
2023-05-20T22:51:52.786Z,13.20
2023-05-20T22:53:55.940Z,11.27
2023-05-20T22:55:59.833Z,12.30
2023-05-20T22:58:02.626Z,12.70
2023-05-20T23:00:08.106Z,11.87
2023-05-20T23:02:12.226Z,12.70
2023-05-20T23:04:15.114Z,13.07
2023-05-20T23:06:17.844Z,12.37
2023-05-20T23:08:20.752Z,12.17
2023-05-20T23:10:24.345Z,13.17
2023-05-20T23:12:27.070Z,13.53
2023-05-20T23:14:29.753Z,11.97
2023-05-20T23:16:32.497Z,19.00
2023-05-20T23:18:37.023Z,12.13
2023-05-20T23:20:40.558Z,13.43
2023-05-20T23:22:43.307Z,13.23
2023-05-20T23:24:46.178Z,12.30
2023-05-20T23:26:48.980Z,12.87
2023-05-20T23:28:51.739Z,13.43
2023-05-20T23:30:54.522Z,12.77
2023-05-20T23:32:57.787Z,15.27
2023-05-20T23:35:04.750Z,13.77
2023-05-20T23:37:07.666Z,14.00
2023-05-20T23:39:10.579Z,15.50
2023-05-20T23:41:13.305Z,13.87
2023-05-20T23:43:16.035Z,13.47
2023-05-20T23:45:18.885Z,13.53
2023-05-20T23:47:21.658Z,13.67
2023-05-20T23:49:26.996Z,14.77
2023-05-20T23:51:31.795Z,14.47
2023-05-20T23:53:34.517Z,14.43
2023-05-20T23:55:37.572Z,14.07
2023-05-20T23:57:40.513Z,14.20
2023-05-20T23:59:43.729Z,14.27
